Time;durP1;ratioP1;P1;durP2;ratioP2;P2;SDS_P1;SDS_P2;PMS_P1;PMS_P2;Temp;Humidity;BMP_temperature;BMP_pressure;BME280_temperature;BME280_humidity;BME280_pressure;Samples;Min_cycle;Max_cycle;Signal;HPM_P1;HPM_P2
2022/11/22 00:01:34;;;;;;;1.37;0.90;;;;;;;;;;5096156;28;20687;-65
2022/11/22 00:04:03;;;;;;;2.27;0.90;;;;;;;;;;5098037;28;20202;-64
2022/11/22 00:06:30;;;;;;;4.83;0.80;;;;;;;;;;5088616;28;20202;-65
2022/11/22 00:08:57;;;;;;;2.63;0.80;;;;;;;;;;5097181;28;20209;-64
2022/11/22 00:11:24;;;;;;;4.17;0.93;;;;;;;;;;5097027;28;20221;-64
2022/11/22 00:13:51;;;;;;;0.80;0.80;;;;;;;;;;5098862;28;20205;-65
2022/11/22 00:16:18;;;;;;;1.07;0.53;;;;;;;;;;5098660;28;20226;-64
2022/11/22 00:18:45;;;;;;;5.57;1.23;;;;;;;;;;5096676;28;20216;-65
2022/11/22 00:21:14;;;;;;;3.20;1.03;;;;;;;;;;5098195;28;20568;-65
2022/11/22 00:23:41;;;;;;;1.50;0.60;;;;;;;;;;5098585;28;20225;-65
2022/11/22 00:26:10;;;;;;;2.53;0.83;;;;;;;;;;5097867;28;20680;-64
2022/11/22 00:28:38;;;;;;;0.70;0.70;;;;;;;;;;5096410;28;20672;-65
2022/11/22 00:31:05;;;;;;;2.10;0.80;;;;;;;;;;5096305;28;20279;-64
2022/11/22 00:33:32;;;;;;;1.30;1.00;;;;;;;;;;5095111;28;20213;-65
2022/11/22 00:35:59;;;;;;;0.63;0.63;;;;;;;;;;5098234;28;20693;-65
2022/11/22 00:38:28;;;;;;;0.73;0.63;;;;;;;;;;5097319;28;20660;-65
2022/11/22 00:40:55;;;;;;;1.40;1.23;;;;;;;;;;5093720;28;20197;-65
2022/11/22 00:43:22;;;;;;;0.70;0.70;;;;;;;;;;5093861;28;20202;-64
2022/11/22 00:45:49;;;;;;;1.77;0.80;;;;;;;;;;5093239;28;20659;-65
2022/11/22 00:48:16;;;;;;;3.90;1.20;;;;;;;;;;5094920;28;20199;-65
2022/11/22 00:50:43;;;;;;;3.70;1.20;;;;;;;;;;5089700;28;20210;-65
2022/11/22 00:53:10;;;;;;;1.00;0.73;;;;;;;;;;5089967;28;20299;-64
2022/11/22 00:55:39;;;;;;;0.67;0.67;;;;;;;;;;5093512;28;20230;-64
2022/11/22 00:58:06;;;;;;;1.90;0.83;;;;;;;;;;5100879;28;20233;-64
2022/11/22 01:00:33;;;;;;;3.53;1.03;;;;;;;;;;5101591;28;20210;-64
2022/11/22 01:03:00;;;;;;;1.00;0.90;;;;;;;;;;5092182;28;20609;-64
2022/11/22 01:05:27;;;;;;;0.70;0.70;;;;;;;;;;5095911;28;20202;-64
2022/11/22 01:07:54;;;;;;;0.57;0.57;;;;;;;;;;5101070;28;20205;-64
2022/11/22 01:10:22;;;;;;;0.70;0.70;;;;;;;;;;5110400;28;20578;-64
2022/11/22 01:12:50;;;;;;;2.67;0.80;;;;;;;;;;5104633;28;20202;-64
2022/11/22 01:15:17;;;;;;;1.03;0.70;;;;;;;;;;5099267;28;20233;-64
2022/11/22 01:17:44;;;;;;;1.40;0.50;;;;;;;;;;5092010;28;20208;-64
2022/11/22 01:20:11;;;;;;;3.50;1.00;;;;;;;;;;5091897;28;20672;-63
2022/11/22 01:22:38;;;;;;;2.37;0.90;;;;;;;;;;5097893;28;20206;-63
2022/11/22 01:25:06;;;;;;;0.80;0.80;;;;;;;;;;5097260;28;20198;-64
2022/11/22 01:27:33;;;;;;;1.20;1.10;;;;;;;;;;5092195;28;20211;-63
2022/11/22 01:30:01;;;;;;;0.60;0.60;;;;;;;;;;5095069;28;20206;-63
2022/11/22 01:32:28;;;;;;;0.77;0.73;;;;;;;;;;5103900;28;20217;-64
2022/11/22 01:34:55;;;;;;;2.50;0.87;;;;;;;;;;5092865;28;20229;-63
2022/11/22 01:37:22;;;;;;;4.10;1.30;;;;;;;;;;5103566;28;20205;-64
2022/11/22 01:39:49;;;;;;;1.23;1.20;;;;;;;;;;5100410;28;20206;-63
2022/11/22 01:42:17;;;;;;;0.97;0.97;;;;;;;;;;5109328;28;20689;-63
2022/11/22 01:44:44;;;;;;;1.03;0.93;;;;;;;;;;5093541;28;20241;-64
2022/11/22 01:47:13;;;;;;;1.50;0.93;;;;;;;;;;5105551;28;20319;-63
2022/11/22 01:49:43;;;;;;;1.07;1.07;;;;;;;;;;5107333;28;20207;-63
2022/11/22 01:52:13;;;;;;;2.30;1.13;;;;;;;;;;5107631;28;20205;-64
2022/11/22 01:54:41;;;;;;;1.40;1.30;;;;;;;;;;5097465;28;20236;-64
2022/11/22 01:57:11;;;;;;;4.90;1.70;;;;;;;;;;5104397;28;20206;-64
2022/11/22 01:59:41;;;;;;;1.40;1.30;;;;;;;;;;5103466;28;20225;-64
2022/11/22 02:02:08;;;;;;;2.90;1.23;;;;;;;;;;5097915;28;20207;-64
2022/11/22 02:04:37;;;;;;;1.57;1.37;;;;;;;;;;5101586;28;20213;-64
2022/11/22 02:07:07;;;;;;;1.77;1.67;;;;;;;;;;5090302;28;20201;-64
2022/11/22 02:09:35;;;;;;;0.90;0.90;;;;;;;;;;5097244;28;20636;-64
2022/11/22 02:12:04;;;;;;;2.03;1.30;;;;;;;;;;5097956;28;20591;-64
2022/11/22 02:14:32;;;;;;;1.07;1.07;;;;;;;;;;5101309;28;20213;-64
2022/11/22 02:16:59;;;;;;;1.43;1.33;;;;;;;;;;5096341;28;20242;-64
2022/11/22 02:19:31;;;;;;;0.87;0.83;;;;;;;;;;5091094;28;20591;-64
2022/11/22 02:22:02;;;;;;;0.90;0.90;;;;;;;;;;5094672;28;20213;-64
2022/11/22 02:24:32;;;;;;;1.00;1.00;;;;;;;;;;5097536;28;20560;-64
2022/11/22 02:27:00;;;;;;;5.20;1.90;;;;;;;;;;5109246;28;20213;-64
2022/11/22 02:29:28;;;;;;;1.17;1.17;;;;;;;;;;5109193;28;20217;-64
2022/11/22 02:31:55;;;;;;;1.83;1.20;;;;;;;;;;5090226;28;20206;-64
2022/11/22 02:34:22;;;;;;;1.80;1.40;;;;;;;;;;5096740;28;20675;-65
2022/11/22 02:36:50;;;;;;;1.77;1.40;;;;;;;;;;5091208;28;20716;-64
2022/11/22 02:39:19;;;;;;;5.90;1.60;;;;;;;;;;5090018;28;20210;-64
2022/11/22 02:41:47;;;;;;;1.50;1.43;;;;;;;;;;5104228;28;20206;-63
2022/11/22 02:44:15;;;;;;;1.17;1.17;;;;;;;;;;5104910;28;20212;-64
2022/11/22 02:46:49;;;;;;;1.33;1.33;;;;;;;;;;5090922;28;20548;-64
2022/11/22 02:49:18;;;;;;;3.30;1.53;;;;;;;;;;5101318;28;20213;-64
2022/11/22 02:51:45;;;;;;;1.80;1.57;;;;;;;;;;5099262;28;20660;-64
2022/11/22 02:54:12;;;;;;;1.50;1.30;;;;;;;;;;5102722;28;20228;-64
2022/11/22 02:56:39;;;;;;;2.57;1.40;;;;;;;;;;5103777;28;20229;-64
2022/11/22 02:59:06;;;;;;;3.57;1.40;;;;;;;;;;5090722;28;20230;-64
2022/11/22 03:01:35;;;;;;;3.17;1.37;;;;;;;;;;5091824;28;20212;-64
2022/11/22 03:04:02;;;;;;;3.27;1.40;;;;;;;;;;5092483;28;20210;-64
2022/11/22 03:06:29;;;;;;;1.50;1.40;;;;;;;;;;5107750;28;20212;-64
2022/11/22 03:08:56;;;;;;;1.80;1.40;;;;;;;;;;5102505;28;20723;-65
2022/11/22 03:11:23;;;;;;;4.20;1.37;;;;;;;;;;5107525;28;20201;-65
2022/11/22 03:13:50;;;;;;;1.73;1.60;;;;;;;;;;5090859;28;20229;-64
2022/11/22 03:16:17;;;;;;;1.70;1.60;;;;;;;;;;5089360;28;20575;-64
2022/11/22 03:18:46;;;;;;;1.53;1.50;;;;;;;;;;5095146;28;20204;-64
2022/11/22 03:21:13;;;;;;;2.73;1.47;;;;;;;;;;5098313;28;20206;-64
2022/11/22 03:23:40;;;;;;;1.90;1.57;;;;;;;;;;5097105;28;20552;-64
2022/11/22 03:26:07;;;;;;;2.90;1.63;;;;;;;;;;5106237;28;20216;-64
2022/11/22 03:28:34;;;;;;;2.30;1.30;;;;;;;;;;5094287;28;20206;-63
2022/11/22 03:31:02;;;;;;;1.77;1.60;;;;;;;;;;5100138;28;20202;-64
2022/11/22 03:33:29;;;;;;;6.60;1.70;;;;;;;;;;5104604;28;20221;-64
2022/11/22 03:35:58;;;;;;;2.57;2.00;;;;;;;;;;5106414;28;20224;-64
2022/11/22 03:38:25;;;;;;;1.53;1.33;;;;;;;;;;5096202;28;20202;-64
2022/11/22 03:40:52;;;;;;;3.87;1.80;;;;;;;;;;5089935;28;20210;-64
2022/11/22 03:43:19;;;;;;;1.80;1.70;;;;;;;;;;5096504;28;20209;-64
2022/11/22 03:45:46;;;;;;;1.93;1.80;;;;;;;;;;5103774;28;20304;-64
2022/11/22 03:48:14;;;;;;;3.93;2.20;;;;;;;;;;5092101;28;20206;-64
2022/11/22 03:50:41;;;;;;;4.50;1.93;;;;;;;;;;5090461;28;20201;-64
2022/11/22 03:53:09;;;;;;;2.03;1.93;;;;;;;;;;5101006;28;20208;-64
2022/11/22 03:55:37;;;;;;;1.83;1.73;;;;;;;;;;5105618;28;20222;-65
2022/11/22 03:58:04;;;;;;;2.30;2.10;;;;;;;;;;5100824;28;20230;-65
2022/11/22 04:00:31;;;;;;;1.90;1.40;;;;;;;;;;5089282;28;20315;-64
2022/11/22 04:02:58;;;;;;;1.87;1.70;;;;;;;;;;5093297;28;20226;-64
2022/11/22 04:05:25;;;;;;;3.67;1.67;;;;;;;;;;5098984;28;20201;-64
2022/11/22 04:07:55;;;;;;;1.87;1.77;;;;;;;;;;5096409;28;20206;-64
2022/11/22 04:10:24;;;;;;;2.40;1.53;;;;;;;;;;5097220;28;20201;-64
2022/11/22 04:12:51;;;;;;;1.73;1.63;;;;;;;;;;5109646;28;20214;-64
2022/11/22 04:15:18;;;;;;;1.53;1.43;;;;;;;;;;5108581;28;20205;-65
2022/11/22 04:17:47;;;;;;;6.73;1.97;;;;;;;;;;5096261;28;20222;-64
2022/11/22 04:23:01;;;;;;;3.37;1.93;;;;;;;;;;5089198;28;20205;-64
2022/11/22 04:25:29;;;;;;;2.20;2.00;;;;;;;;;;5089081;28;20213;-64
2022/11/22 04:27:56;;;;;;;2.43;2.23;;;;;;;;;;5103280;28;20234;-64
2022/11/22 04:32:44;;;;;;;3.43;1.90;;;;;;;;;;5089021;28;20215;-64
2022/11/22 04:33:17;;;;;;;1.87;1.77;;;;;;;;;;5088783;28;20222;-64
2022/11/22 04:35:44;;;;;;;2.17;1.60;;;;;;;;;;5089654;28;20297;-64
2022/11/22 04:38:12;;;;;;;1.83;1.70;;;;;;;;;;5096006;28;20198;-64
2022/11/22 04:40:41;;;;;;;1.73;1.63;;;;;;;;;;5109140;28;20683;-64
2022/11/22 04:45:53;;;;;;;1.60;1.50;;;;;;;;;;5105719;28;20348;-64
2022/11/22 04:48:20;;;;;;;7.23;1.93;;;;;;;;;;5093249;28;20201;-64
2022/11/22 04:53:32;;;;;;;1.63;1.53;;;;;;;;;;5108893;28;20196;-64
2022/11/22 04:56:01;;;;;;;1.43;1.33;;;;;;;;;;5093174;28;20809;-64
2022/11/22 04:58:28;;;;;;;1.30;1.30;;;;;;;;;;5092173;28;20873;-65
2022/11/22 05:00:55;;;;;;;1.37;1.37;;;;;;;;;;5102139;28;20567;-64
2022/11/22 05:03:22;;;;;;;3.70;1.73;;;;;;;;;;5096426;28;20224;-64
2022/11/22 05:05:49;;;;;;;3.03;1.80;;;;;;;;;;5108190;28;20206;-64
2022/11/22 05:08:16;;;;;;;1.33;1.33;;;;;;;;;;5097507;28;20206;-64
2022/11/22 05:10:59;;;;;;;2.97;1.80;;;;;;;;;;5104467;28;20262;-63
2022/11/22 05:13:29;;;;;;;1.93;1.23;;;;;;;;;;5092187;28;20210;-63
2022/11/22 05:15:56;;;;;;;3.07;1.83;;;;;;;;;;5099500;28;20194;-63
2022/11/22 05:18:24;;;;;;;1.90;1.80;;;;;;;;;;5109643;28;20206;-63
2022/11/22 05:20:51;;;;;;;1.70;1.60;;;;;;;;;;5110442;28;20205;-63
2022/11/22 05:26:03;;;;;;;6.30;1.43;;;;;;;;;;5090803;28;20205;-63
2022/11/22 05:28:32;;;;;;;2.07;1.60;;;;;;;;;;5091876;28;20556;-63
2022/11/22 05:30:59;;;;;;;1.63;1.20;;;;;;;;;;5092504;28;20222;-63
2022/11/22 05:33:26;;;;;;;1.70;1.43;;;;;;;;;;5090772;28;20610;-63
2022/11/22 05:35:53;;;;;;;3.13;1.50;;;;;;;;;;5091157;28;20770;-63
2022/11/22 05:38:20;;;;;;;1.63;1.53;;;;;;;;;;5091959;28;20205;-63
2022/11/22 05:40:47;;;;;;;2.80;0.97;;;;;;;;;;5098146;28;20214;-63
2022/11/22 05:43:14;;;;;;;1.50;1.50;;;;;;;;;;5095883;28;20198;-63
2022/11/22 05:45:43;;;;;;;2.10;1.17;;;;;;;;;;5105024;28;20217;-64
2022/11/22 05:48:10;;;;;;;2.33;1.30;;;;;;;;;;5090009;28;20561;-63
2022/11/22 05:50:37;;;;;;;3.47;1.30;;;;;;;;;;5090531;28;20564;-63
2022/11/22 05:53:04;;;;;;;4.00;1.40;;;;;;;;;;5101169;28;20199;-63
2022/11/22 05:55:31;;;;;;;1.70;1.40;;;;;;;;;;5090397;28;20231;-63
2022/11/22 05:58:00;;;;;;;6.17;1.47;;;;;;;;;;5107362;28;20614;-63
2022/11/22 06:00:27;;;;;;;1.67;1.20;;;;;;;;;;5105251;28;20282;-63
2022/11/22 06:02:59;;;;;;;1.33;1.23;;;;;;;;;;5095069;28;20210;-64
2022/11/22 06:05:26;;;;;;;1.30;1.20;;;;;;;;;;5096035;28;20390;-63
2022/11/22 06:07:54;;;;;;;1.97;1.20;;;;;;;;;;5095753;28;20210;-63
2022/11/22 06:10:21;;;;;;;1.13;1.00;;;;;;;;;;5092157;28;20649;-63
2022/11/22 06:12:48;;;;;;;4.23;1.57;;;;;;;;;;5091802;28;20209;-63
2022/11/22 06:15:15;;;;;;;1.27;1.17;;;;;;;;;;5102585;28;20208;-64
2022/11/22 06:17:43;;;;;;;1.43;1.17;;;;;;;;;;5099749;28;20841;-64
2022/11/22 06:20:11;;;;;;;12.43;1.57;;;;;;;;;;5090081;28;20207;-65
2022/11/22 06:22:38;;;;;;;3.17;0.80;;;;;;;;;;5090080;28;20211;-62
2022/11/22 06:25:06;;;;;;;2.77;1.20;;;;;;;;;;5090166;28;20222;-64
2022/11/22 06:27:36;;;;;;;1.43;1.30;;;;;;;;;;5101200;28;20198;-64
2022/11/22 06:30:04;;;;;;;7.07;1.10;;;;;;;;;;5091704;28;20221;-63
2022/11/22 06:32:32;;;;;;;2.00;1.07;;;;;;;;;;5090086;28;20221;-64
2022/11/22 06:35:00;;;;;;;2.90;0.97;;;;;;;;;;5089329;28;20218;-65
2022/11/22 06:37:29;;;;;;;1.70;0.97;;;;;;;;;;5094827;28;20277;-64
2022/11/22 06:39:56;;;;;;;2.13;0.97;;;;;;;;;;5102954;28;20205;-65
2022/11/22 06:42:23;;;;;;;3.30;0.70;;;;;;;;;;5106353;28;20206;-64
2022/11/22 06:44:50;;;;;;;7.23;1.10;;;;;;;;;;5089674;28;20217;-64
2022/11/22 06:47:17;;;;;;;1.73;0.80;;;;;;;;;;5089906;28;20684;-65
2022/11/22 06:49:44;;;;;;;5.40;1.00;;;;;;;;;;5108753;28;20197;-64
2022/11/22 06:52:12;;;;;;;1.97;0.77;;;;;;;;;;5104321;28;20212;-64
2022/11/22 06:54:40;;;;;;;6.83;1.47;;;;;;;;;;5109014;28;20249;-65
2022/11/22 06:57:21;;;;;;;2.57;1.20;;;;;;;;;;5093907;28;20241;-66
2022/11/22 06:59:48;;;;;;;1.77;0.57;;;;;;;;;;5098129;28;20205;-65
2022/11/22 07:02:16;;;;;;;3.43;1.07;;;;;;;;;;5105987;28;20206;-65
2022/11/22 07:04:43;;;;;;;4.43;0.60;;;;;;;;;;5100376;28;20205;-65
2022/11/22 07:07:10;;;;;;;0.40;0.40;;;;;;;;;;5092926;28;20190;-65
2022/11/22 07:09:37;;;;;;;4.87;0.97;;;;;;;;;;5098346;28;20834;-66
2022/11/22 07:12:06;;;;;;;8.00;1.10;;;;;;;;;;5095126;28;20236;-65
2022/11/22 07:14:33;;;;;;;4.60;1.20;;;;;;;;;;5105509;28;20201;-65
2022/11/22 07:17:00;;;;;;;1.40;1.07;;;;;;;;;;5105841;28;20229;-65
2022/11/22 07:19:27;;;;;;;8.53;1.17;;;;;;;;;;5092339;28;20255;-64
2022/11/22 07:21:54;;;;;;;2.73;1.53;;;;;;;;;;5096552;28;20229;-63
2022/11/22 07:24:21;;;;;;;2.63;0.57;;;;;;;;;;5093761;28;20202;-63
2022/11/22 07:26:48;;;;;;;4.53;1.10;;;;;;;;;;5089290;28;20206;-64
2022/11/22 07:29:16;;;;;;;3.20;1.13;;;;;;;;;;5105282;28;20205;-64
2022/11/22 07:31:45;;;;;;;2.93;1.00;;;;;;;;;;5097883;28;20214;-64
2022/11/22 07:34:12;;;;;;;7.77;1.67;;;;;;;;;;5092062;28;20210;-65
2022/11/22 07:36:40;;;;;;;1.20;1.10;;;;;;;;;;5089283;28;20206;-64
2022/11/22 07:39:07;;;;;;;10.03;1.10;;;;;;;;;;5097295;28;20198;-64
2022/11/22 07:41:34;;;;;;;2.80;0.93;;;;;;;;;;5108527;28;20554;-64
2022/11/22 07:44:01;;;;;;;3.40;0.97;;;;;;;;;;5109620;28;20202;-64
2022/11/22 07:46:31;;;;;;;0.80;0.43;;;;;;;;;;5095494;28;20214;-65
2022/11/22 07:48:59;;;;;;;8.30;0.63;;;;;;;;;;5089113;28;20214;-64
2022/11/22 07:51:26;;;;;;;4.23;0.70;;;;;;;;;;5094512;28;20648;-64
2022/11/22 07:53:54;;;;;;;0.60;0.57;;;;;;;;;;5109219;28;20209;-64
2022/11/22 07:56:22;;;;;;;3.53;0.57;;;;;;;;;;5105975;28;20293;-63
2022/11/22 07:58:49;;;;;;;6.03;0.60;;;;;;;;;;5109094;28;20603;-64
2022/11/22 08:01:17;;;;;;;3.53;0.77;;;;;;;;;;5090458;28;20198;-64
2022/11/22 08:03:46;;;;;;;1.00;0.60;;;;;;;;;;5088913;28;20219;-65
2022/11/22 08:06:13;;;;;;;5.90;0.60;;;;;;;;;;5089377;28;20202;-65
2022/11/22 08:08:40;;;;;;;0.97;0.63;;;;;;;;;;5089043;28;20208;-65
2022/11/22 08:11:08;;;;;;;0.60;0.57;;;;;;;;;;5090675;28;20213;-65
2022/11/22 08:13:35;;;;;;;3.83;0.67;;;;;;;;;;5093180;28;20210;-65
2022/11/22 08:16:03;;;;;;;1.50;1.00;;;;;;;;;;5093037;28;20304;-65
2022/11/22 08:18:33;;;;;;;7.23;0.63;;;;;;;;;;5096879;28;20739;-65
2022/11/22 08:21:09;;;;;;;1.83;0.70;;;;;;;;;;5101849;28;20202;-64
2022/11/22 08:23:36;;;;;;;1.30;0.63;;;;;;;;;;5111515;28;20212;-65
2022/11/22 08:26:03;;;;;;;2.57;0.80;;;;;;;;;;5102823;28;20206;-65
2022/11/22 08:28:31;;;;;;;4.67;0.60;;;;;;;;;;5110215;28;20198;-66
2022/11/22 08:31:02;;;;;;;0.87;0.60;;;;;;;;;;5101450;28;20205;-62
2022/11/22 08:33:30;;;;;;;1.63;0.50;;;;;;;;;;5098521;28;20958;-64
2022/11/22 08:35:57;;;;;;;3.73;0.70;;;;;;;;;;5093648;28;20209;-64
2022/11/22 08:38:25;;;;;;;11.03;1.20;;;;;;;;;;5093953;28;20225;-60
2022/11/22 08:40:52;;;;;;;3.70;0.90;;;;;;;;;;5101982;28;20706;-62
2022/11/22 08:43:20;;;;;;;3.27;1.00;;;;;;;;;;5112319;28;20198;-63
2022/11/22 08:45:47;;;;;;;5.10;0.63;;;;;;;;;;5104356;28;20201;-67
2022/11/22 08:48:14;;;;;;;0.40;0.40;;;;;;;;;;5109112;28;20190;-66
2022/11/22 08:50:41;;;;;;;2.53;1.00;;;;;;;;;;5098028;28;20202;-65
2022/11/22 08:53:08;;;;;;;0.60;0.40;;;;;;;;;;5112551;28;20210;-65
2022/11/22 08:55:36;;;;;;;2.67;0.63;;;;;;;;;;5106881;28;20232;-66
2022/11/22 08:58:04;;;;;;;2.80;0.77;;;;;;;;;;5100000;28;20247;-66
2022/11/22 09:00:31;;;;;;;2.73;0.90;;;;;;;;;;5098175;28;20207;-65
2022/11/22 09:02:58;;;;;;;1.17;0.43;;;;;;;;;;5093070;28;20747;-62
2022/11/22 09:05:25;;;;;;;3.10;0.70;;;;;;;;;;5093092;28;20592;-63
2022/11/22 09:07:52;;;;;;;2.17;0.80;;;;;;;;;;5108724;28;20208;-64
2022/11/22 09:10:19;;;;;;;0.60;0.40;;;;;;;;;;5093123;28;20203;-65
2022/11/22 09:12:47;;;;;;;1.87;0.47;;;;;;;;;;5092989;28;20194;-65
2022/11/22 09:15:16;;;;;;;3.50;0.67;;;;;;;;;;5099281;28;20678;-64
2022/11/22 09:17:43;;;;;;;5.63;0.90;;;;;;;;;;5111881;28;20237;-65
2022/11/22 09:20:10;;;;;;;3.43;1.27;;;;;;;;;;5096634;28;20577;-63
2022/11/22 09:22:37;;;;;;;3.23;1.03;;;;;;;;;;5093537;28;20208;-62
2022/11/22 09:25:05;;;;;;;2.00;0.93;;;;;;;;;;5103387;28;20221;-62
2022/11/22 09:27:32;;;;;;;41.90;1.97;;;;;;;;;;5102600;28;20244;-62
2022/11/22 09:30:01;;;;;;;6.47;1.00;;;;;;;;;;5091569;28;20206;-62
2022/11/22 09:32:28;;;;;;;2.97;0.43;;;;;;;;;;5095073;28;20206;-65
2022/11/22 09:34:55;;;;;;;1.40;0.50;;;;;;;;;;5100663;28;20213;-65
2022/11/22 09:37:22;;;;;;;2.30;0.60;;;;;;;;;;5111371;28;20651;-65
2022/11/22 09:39:50;;;;;;;1.60;0.50;;;;;;;;;;5094352;28;20203;-65
2022/11/22 09:42:32;;;;;;;5.73;0.93;;;;;;;;;;5092546;28;20210;-63
2022/11/22 09:45:15;;;;;;;2.83;0.40;;;;;;;;;;5104725;28;20200;-65
2022/11/22 09:47:48;;;;;;;4.00;0.73;;;;;;;;;;5088725;28;20216;-63
2022/11/22 09:50:21;;;;;;;3.20;0.40;;;;;;;;;;5091362;28;20206;-64
2022/11/22 09:52:49;;;;;;;0.60;0.60;;;;;;;;;;5092533;28;20216;-64
2022/11/22 09:55:21;;;;;;;2.63;0.30;;;;;;;;;;5104334;28;20229;-64
2022/11/22 09:57:49;;;;;;;2.97;0.70;;;;;;;;;;5094818;28;20238;-64
2022/11/22 10:00:20;;;;;;;6.00;0.80;;;;;;;;;;5090649;28;20213;-64
2022/11/22 10:02:50;;;;;;;0.27;0.27;;;;;;;;;;5093932;28;20213;-63
2022/11/22 10:05:21;;;;;;;6.13;0.70;;;;;;;;;;5087849;28;20786;-64
2022/11/22 10:07:51;;;;;;;3.50;0.47;;;;;;;;;;5095925;28;20209;-64
2022/11/22 10:10:21;;;;;;;0.30;0.30;;;;;;;;;;5094891;28;20221;-65
2022/11/22 10:12:49;;;;;;;0.50;0.50;;;;;;;;;;5091663;28;20217;-63
2022/11/22 10:15:21;;;;;;;0.70;0.43;;;;;;;;;;5091846;28;20207;-64
2022/11/22 10:17:53;;;;;;;13.20;0.70;;;;;;;;;;5090958;28;20226;-64
2022/11/22 10:20:21;;;;;;;0.40;0.33;;;;;;;;;;5089720;28;20401;-63
2022/11/22 10:22:48;;;;;;;1.17;0.80;;;;;;;;;;5096160;28;20198;-63
2022/11/22 10:25:17;;;;;;;2.37;0.40;;;;;;;;;;5102579;28;20585;-64
2022/11/22 10:27:45;;;;;;;4.93;0.33;;;;;;;;;;5104953;28;20217;-64
2022/11/22 10:30:14;;;;;;;0.30;0.30;;;;;;;;;;5089892;28;20263;-63
2022/11/22 10:32:46;;;;;;;0.30;0.30;;;;;;;;;;5094790;28;20203;-63
2022/11/22 10:35:24;;;;;;;0.70;0.20;;;;;;;;;;5089644;28;20233;-64
2022/11/22 10:37:55;;;;;;;5.30;0.77;;;;;;;;;;5090913;28;20229;-64
2022/11/22 10:40:26;;;;;;;1.20;0.50;;;;;;;;;;5093863;28;20206;-63
2022/11/22 10:42:59;;;;;;;1.80;0.63;;;;;;;;;;5094032;28;20285;-63
2022/11/22 10:45:30;;;;;;;7.87;0.37;;;;;;;;;;5109670;28;20275;-63
2022/11/22 10:48:02;;;;;;;4.17;0.97;;;;;;;;;;5097663;28;20194;-63
2022/11/22 10:50:35;;;;;;;0.87;0.53;;;;;;;;;;5098302;28;20220;-64
2022/11/22 10:53:06;;;;;;;2.07;0.63;;;;;;;;;;5108095;28;20201;-63
2022/11/22 10:55:42;;;;;;;4.13;0.83;;;;;;;;;;5109800;28;20229;-62
2022/11/22 10:58:13;;;;;;;1.03;0.73;;;;;;;;;;5105075;28;20234;-63
2022/11/22 11:00:42;;;;;;;0.93;0.30;;;;;;;;;;5089761;28;20213;-62
2022/11/22 11:03:13;;;;;;;2.83;0.93;;;;;;;;;;5090182;28;20222;-62
2022/11/22 11:05:44;;;;;;;3.90;0.43;;;;;;;;;;5108207;28;20209;-63
2022/11/22 11:08:14;;;;;;;0.73;0.50;;;;;;;;;;5100036;28;20203;-63
2022/11/22 11:10:41;;;;;;;3.70;0.67;;;;;;;;;;5090737;28;20285;-64
2022/11/22 11:13:15;;;;;;;3.13;0.43;;;;;;;;;;5090442;28;20210;-64
2022/11/22 11:15:45;;;;;;;4.17;0.63;;;;;;;;;;5089684;28;20221;-63
2022/11/22 11:18:14;;;;;;;3.40;0.90;;;;;;;;;;5090764;28;20218;-63
2022/11/22 11:20:46;;;;;;;4.53;1.07;;;;;;;;;;5097355;28;20680;-63
2022/11/22 11:23:13;;;;;;;1.77;0.63;;;;;;;;;;5109273;28;20210;-64
2022/11/22 11:25:42;;;;;;;5.67;0.70;;;;;;;;;;5094377;28;20284;-63
2022/11/22 11:28:12;;;;;;;1.13;0.33;;;;;;;;;;5107820;28;20293;-61
2022/11/22 11:30:41;;;;;;;0.50;0.50;;;;;;;;;;5088265;28;20224;-62
2022/11/22 11:33:21;;;;;;;0.83;0.60;;;;;;;;;;5091345;28;20209;-61
2022/11/22 11:35:53;;;;;;;1.47;0.43;;;;;;;;;;5091617;28;20218;-61
2022/11/22 11:38:27;;;;;;;4.73;0.50;;;;;;;;;;5098861;28;20230;-61
2022/11/22 11:40:54;;;;;;;6.57;0.90;;;;;;;;;;5109069;28;20209;-61
2022/11/22 11:43:22;;;;;;;0.53;0.50;;;;;;;;;;5095323;28;20213;-61
2022/11/22 11:45:49;;;;;;;1.67;0.70;;;;;;;;;;5098857;28;20206;-63
2022/11/22 11:48:30;;;;;;;2.20;0.50;;;;;;;;;;5092275;28;20213;-63
2022/11/22 11:51:14;;;;;;;0.83;0.40;;;;;;;;;;5098254;28;20198;-63
2022/11/22 11:53:43;;;;;;;4.63;1.23;;;;;;;;;;5102869;28;20201;-63
2022/11/22 11:56:34;;;;;;;0.37;0.37;;;;;;;;;;5105499;28;20279;-63
2022/11/22 11:59:06;;;;;;;3.13;0.40;;;;;;;;;;5068095;28;20230;-63
2022/11/22 12:01:34;;;;;;;2.80;0.60;;;;;;;;;;5106200;28;20202;-63
2022/11/22 12:04:03;;;;;;;2.70;0.30;;;;;;;;;;5091638;28;20256;-63
2022/11/22 12:06:32;;;;;;;1.83;0.50;;;;;;;;;;5096146;28;20660;-63
2022/11/22 12:08:59;;;;;;;0.53;0.53;;;;;;;;;;5097291;28;20198;-62
2022/11/22 12:11:31;;;;;;;9.10;0.77;;;;;;;;;;5102573;28;20272;-62
2022/11/22 12:14:00;;;;;;;4.17;0.30;;;;;;;;;;5089138;28;20210;-64
2022/11/22 12:16:30;;;;;;;0.53;0.50;;;;;;;;;;5089314;28;20202;-62
2022/11/22 12:19:00;;;;;;;2.92;0.80;;;;;;;;;;5089396;28;20448;-59
2022/11/22 12:21:29;;;;;;;1.83;0.60;;;;;;;;;;5103532;28;20205;-62
2022/11/22 12:24:02;;;;;;;0.77;0.47;;;;;;;;;;5098118;28;20288;-63
2022/11/22 12:26:29;;;;;;;3.57;0.60;;;;;;;;;;5089326;28;20292;-63
2022/11/22 12:28:58;;;;;;;0.00;0.00;;;;;;;;;;5100385;28;20202;-63
2022/11/22 12:31:28;;;;;;;1.40;0.20;;;;;;;;;;5095504;28;20297;-64
2022/11/22 12:33:56;;;;;;;2.60;0.70;;;;;;;;;;5089513;28;20210;-62
2022/11/22 12:36:28;;;;;;;2.60;0.60;;;;;;;;;;5097169;28;20208;-62
2022/11/22 12:38:55;;;;;;;1.07;0.40;;;;;;;;;;5105618;28;20233;-62
2022/11/22 12:41:27;;;;;;;1.03;0.60;;;;;;;;;;5091446;28;20206;-63
2022/11/22 12:43:55;;;;;;;0.83;0.40;;;;;;;;;;5090666;28;20210;-62
2022/11/22 12:46:23;;;;;;;2.10;0.30;;;;;;;;;;5088875;28;20203;-63
2022/11/22 12:48:53;;;;;;;0.43;0.43;;;;;;;;;;5096443;28;20202;-62
2022/11/22 12:51:23;;;;;;;0.50;0.40;;;;;;;;;;5094391;28;20205;-62
2022/11/22 12:53:52;;;;;;;1.17;0.30;;;;;;;;;;5088646;28;20206;-64
2022/11/22 12:56:23;;;;;;;0.67;0.40;;;;;;;;;;5090107;28;20202;-61
2022/11/22 12:58:54;;;;;;;0.33;0.30;;;;;;;;;;5111018;28;20757;-63
2022/11/22 13:01:25;;;;;;;0.33;0.27;;;;;;;;;;5104300;28;20216;-60
2022/11/22 13:03:57;;;;;;;4.43;0.40;;;;;;;;;;5092787;28;20280;-62
2022/11/22 13:06:24;;;;;;;1.60;0.30;;;;;;;;;;5098369;28;20305;-62
2022/11/22 13:08:57;;;;;;;1.10;0.43;;;;;;;;;;5090870;28;20222;-62
2022/11/22 13:11:26;;;;;;;2.40;0.80;;;;;;;;;;5092793;28;20207;-62
2022/11/22 13:13:58;;;;;;;2.97;0.43;;;;;;;;;;5093252;28;20316;-62
2022/11/22 13:16:25;;;;;;;0.40;0.40;;;;;;;;;;5094680;28;20202;-61
2022/11/22 13:18:55;;;;;;;1.10;0.33;;;;;;;;;;5093176;28;20233;-62
2022/11/22 13:21:26;;;;;;;1.40;0.40;;;;;;;;;;5102824;28;20206;-62
2022/11/22 13:23:59;;;;;;;0.60;0.17;;;;;;;;;;5091670;28;20213;-62
2022/11/22 13:26:31;;;;;;;0.50;0.50;;;;;;;;;;5090386;28;20550;-62
2022/11/22 13:29:11;;;;;;;1.13;0.60;;;;;;;;;;5099339;28;20202;-63
2022/11/22 13:31:38;;;;;;;3.80;1.87;;;;;;;;;;5101071;28;20209;-63
2022/11/22 13:34:05;;;;;;;0.77;0.50;;;;;;;;;;5090249;28;20210;-62
2022/11/22 13:36:37;;;;;;;6.87;1.00;;;;;;;;;;5091194;28;20206;-62
2022/11/22 13:39:05;;;;;;;2.27;0.40;;;;;;;;;;5093931;28;20257;-62
2022/11/22 13:41:37;;;;;;;0.70;0.70;;;;;;;;;;5089821;28;20550;-62
2022/11/22 13:44:18;;;;;;;3.57;0.90;;;;;;;;;;5088630;28;20207;-63
2022/11/22 13:46:53;;;;;;;0.40;0.40;;;;;;;;;;5089220;28;20256;-62
2022/11/22 13:49:31;;;;;;;3.10;0.47;;;;;;;;;;5088932;28;20202;-62
2022/11/22 13:51:59;;;;;;;0.60;0.30;;;;;;;;;;5088939;28;20206;-62
2022/11/22 13:54:41;;;;;;;0.47;0.40;;;;;;;;;;5088400;28;20226;-62
2022/11/22 13:57:23;;;;;;;0.73;0.40;;;;;;;;;;5089245;28;20637;-62
2022/11/22 14:00:20;;;;;;;1.83;0.70;;;;;;;;;;5090178;28;20240;-62
2022/11/22 14:02:48;;;;;;;0.70;0.30;;;;;;;;;;5088538;28;20760;-62
2022/11/22 14:05:18;;;;;;;1.20;0.83;;;;;;;;;;5092177;28;20202;-62
2022/11/22 14:07:45;;;;;;;2.00;0.47;;;;;;;;;;5088923;28;20631;-62
2022/11/22 14:10:27;;;;;;;1.13;0.37;;;;;;;;;;5100635;28;20543;-62
2022/11/22 14:13:15;;;;;;;0.53;0.40;;;;;;;;;;5109332;28;20201;-62
2022/11/22 14:15:51;;;;;;;2.23;0.80;;;;;;;;;;5088830;28;20206;-62
2022/11/22 14:18:24;;;;;;;0.97;0.63;;;;;;;;;;5090314;28;20214;-62
2022/11/22 14:21:00;;;;;;;0.73;0.60;;;;;;;;;;5109197;28;20700;-62
2022/11/22 14:23:31;;;;;;;2.30;0.60;;;;;;;;;;5107702;28;20201;-62
2022/11/22 14:26:09;;;;;;;0.70;0.53;;;;;;;;;;5089644;28;20222;-62
2022/11/22 14:28:45;;;;;;;0.30;0.30;;;;;;;;;;5090746;28;20202;-62
2022/11/22 14:31:19;;;;;;;0.93;0.43;;;;;;;;;;5089880;28;20593;-62
2022/11/22 14:34:01;;;;;;;0.33;0.30;;;;;;;;;;5104387;28;20216;-61
2022/11/22 14:36:28;;;;;;;0.30;0.30;;;;;;;;;;5092895;28;20210;-63
2022/11/22 14:38:55;;;;;;;0.50;0.50;;;;;;;;;;5089393;28;20225;-62
2022/11/22 14:41:42;;;;;;;3.83;0.93;;;;;;;;;;5091883;28;20199;-62
2022/11/22 14:44:11;;;;;;;0.53;0.50;;;;;;;;;;5089233;28;20202;-62
2022/11/22 14:46:41;;;;;;;1.73;1.10;;;;;;;;;;5088983;28;20240;-62
2022/11/22 14:49:11;;;;;;;5.30;0.87;;;;;;;;;;5102154;28;20198;-63
2022/11/22 14:51:39;;;;;;;11.43;0.43;;;;;;;;;;5109819;28;20209;-62
2022/11/22 14:54:14;;;;;;;2.10;0.30;;;;;;;;;;5093733;28;20205;-63
2022/11/22 14:56:43;;;;;;;0.87;0.70;;;;;;;;;;5089618;28;20213;-62
2022/11/22 14:59:16;;;;;;;2.30;0.43;;;;;;;;;;5089104;28;20238;-64
2022/11/22 15:01:55;;;;;;;1.33;0.40;;;;;;;;;;5087477;28;20241;-61
2022/11/22 15:04:32;;;;;;;0.30;0.30;;;;;;;;;;5089298;28;20218;-63
2022/11/22 15:07:08;;;;;;;0.20;0.20;;;;;;;;;;5088996;28;20317;-62